Time;durP1;ratioP1;P1;durP2;ratioP2;P2;SDS_P1;SDS_P2;PMS_P1;PMS_P2;Temp;Humidity;BMP_temperature;BMP_pressure;BME280_temperature;BME280_humidity;BME280_pressure;Samples;Min_cycle;Max_cycle;Signal;HPM_P1;HPM_P2
2022/01/06 00:01:36;;;;;;;3.42;1.00;;;;;;;;;;5070326;28;20092;-68
2022/01/06 00:04:02;;;;;;;6.38;1.35;;;;;;;;;;5070593;28;20400;-69
2022/01/06 00:06:29;;;;;;;4.05;1.20;;;;;;;;;;5070184;28;20028;-69
2022/01/06 00:08:56;;;;;;;1.35;1.00;;;;;;;;;;5070126;28;20052;-69
2022/01/06 00:11:21;;;;;;;3.28;1.25;;;;;;;;;;5070258;28;20048;-69
2022/01/06 00:23:06;;;;;;;2.90;1.05;;;;;;;;;;5070378;28;20017;-69
2022/01/06 00:24:07;;;;;;;3.35;1.00;;;;;;;;;;5070040;28;20055;-69
2022/01/06 00:26:33;;;;;;;3.80;1.40;;;;;;;;;;5070409;28;20388;-69
2022/01/06 00:28:58;;;;;;;1.73;0.93;;;;;;;;;;5069833;28;20027;-69
2022/01/06 00:31:24;;;;;;;2.53;1.10;;;;;;;;;;5070202;28;20025;-69
2022/01/06 00:33:49;;;;;;;3.25;1.02;;;;;;;;;;5069855;28;20106;-69
2022/01/06 00:36:14;;;;;;;4.00;1.13;;;;;;;;;;5069995;28;20482;-69
2022/01/06 00:38:40;;;;;;;3.08;1.05;;;;;;;;;;5069765;28;20287;-68
2022/01/06 00:41:05;;;;;;;5.72;1.08;;;;;;;;;;5069950;28;20035;-69
2022/01/06 00:43:31;;;;;;;2.17;1.08;;;;;;;;;;5069814;28;20020;-68
2022/01/06 00:45:56;;;;;;;2.08;0.80;;;;;;;;;;5069914;28;20035;-68
2022/01/06 00:48:21;;;;;;;5.05;1.10;;;;;;;;;;5069848;28;20457;-68
2022/01/06 00:50:47;;;;;;;5.65;1.15;;;;;;;;;;5069877;28;20111;-68
2022/01/06 00:53:12;;;;;;;2.15;0.98;;;;;;;;;;5069979;28;20056;-68
2022/01/06 00:55:39;;;;;;;3.72;1.30;;;;;;;;;;5069760;28;20024;-69
2022/01/06 00:58:05;;;;;;;3.05;1.10;;;;;;;;;;5069472;28;20025;-68
2022/01/06 01:00:38;;;;;;;2.20;1.10;;;;;;;;;;5069849;28;20094;-68
2022/01/06 01:03:05;;;;;;;2.50;1.00;;;;;;;;;;5069892;28;20377;-68
2022/01/06 01:05:31;;;;;;;3.47;1.00;;;;;;;;;;5069667;28;20025;-68
2022/01/06 01:07:57;;;;;;;4.60;1.55;;;;;;;;;;5069384;28;20029;-69
2022/01/06 01:10:22;;;;;;;2.85;1.20;;;;;;;;;;5069874;28;20108;-68
2022/01/06 01:12:48;;;;;;;3.90;1.30;;;;;;;;;;5069521;28;20140;-68
2022/01/06 01:15:21;;;;;;;4.63;1.35;;;;;;;;;;5069589;28;20433;-68
2022/01/06 01:17:48;;;;;;;6.85;1.70;;;;;;;;;;5069556;28;20037;-68
2022/01/06 01:20:16;;;;;;;4.30;1.42;;;;;;;;;;5069985;28;20035;-68
2022/01/06 01:22:42;;;;;;;6.35;2.22;;;;;;;;;;5069487;28;20029;-68
2022/01/06 01:25:07;;;;;;;3.53;1.67;;;;;;;;;;5069699;28;20289;-68
2022/01/06 01:27:38;;;;;;;3.47;1.55;;;;;;;;;;5069496;28;20025;-68
2022/01/06 01:30:10;;;;;;;4.13;1.40;;;;;;;;;;5069578;28;20055;-68
2022/01/06 01:32:36;;;;;;;4.50;1.45;;;;;;;;;;5069874;28;20047;-68
2022/01/06 01:35:03;;;;;;;4.80;1.38;;;;;;;;;;5069528;28;20025;-68
2022/01/06 01:37:31;;;;;;;2.55;1.40;;;;;;;;;;5069010;28;20076;-68
2022/01/06 01:39:58;;;;;;;4.40;1.50;;;;;;;;;;5069508;28;20446;-68
2022/01/06 01:42:24;;;;;;;4.22;1.48;;;;;;;;;;5069543;28;20021;-68
2022/01/06 01:44:51;;;;;;;3.78;1.48;;;;;;;;;;5069055;28;20407;-68
2022/01/06 01:47:27;;;;;;;3.95;1.50;;;;;;;;;;5072715;28;20430;-68
2022/01/06 01:49:58;;;;;;;2.65;1.25;;;;;;;;;;5072742;28;20021;-68
2022/01/06 01:52:25;;;;;;;3.25;1.35;;;;;;;;;;5072827;28;20459;-68
2022/01/06 01:54:50;;;;;;;5.25;1.20;;;;;;;;;;5072758;28;20025;-68
2022/01/06 01:57:16;;;;;;;2.17;1.27;;;;;;;;;;5072780;28;20368;-72
2022/01/06 01:59:42;;;;;;;1.95;1.15;;;;;;;;;;5072703;28;20509;-68
2022/01/06 02:02:08;;;;;;;2.13;1.00;;;;;;;;;;5072880;28;20025;-68
2022/01/06 02:04:33;;;;;;;1.95;0.95;;;;;;;;;;5072590;28;20107;-68
2022/01/06 02:06:59;;;;;;;2.67;1.10;;;;;;;;;;5072715;28;20112;-68
2022/01/06 02:09:25;;;;;;;2.20;0.90;;;;;;;;;;5072352;28;20112;-68
2022/01/06 02:11:50;;;;;;;2.10;0.90;;;;;;;;;;5072965;28;20290;-68
2022/01/06 02:14:16;;;;;;;1.70;0.90;;;;;;;;;;5072791;28;20036;-68
2022/01/06 02:16:41;;;;;;;2.63;1.00;;;;;;;;;;5072517;28;20039;-68
2022/01/06 02:19:06;;;;;;;4.07;0.90;;;;;;;;;;5072187;28;20490;-68
2022/01/06 02:21:32;;;;;;;2.67;0.95;;;;;;;;;;5072382;28;20468;-68
2022/01/06 02:23:57;;;;;;;2.30;0.82;;;;;;;;;;5072390;28;20020;-68
2022/01/06 02:26:23;;;;;;;6.38;1.20;;;;;;;;;;5072079;28;20476;-68
2022/01/06 02:28:48;;;;;;;3.03;0.85;;;;;;;;;;5072193;28;20104;-68
2022/01/06 02:31:14;;;;;;;1.35;0.80;;;;;;;;;;5072174;28;20369;-68
2022/01/06 02:33:40;;;;;;;3.65;0.80;;;;;;;;;;5072069;28;20035;-68
2022/01/06 02:36:05;;;;;;;1.42;0.90;;;;;;;;;;5072221;28;20021;-68
2022/01/06 02:38:32;;;;;;;2.08;0.82;;;;;;;;;;5071603;28;20045;-68
2022/01/06 02:40:58;;;;;;;2.90;0.80;;;;;;;;;;5072197;28;20045;-68
2022/01/06 02:43:25;;;;;;;1.77;0.80;;;;;;;;;;5071789;28;20024;-68
2022/01/06 02:45:50;;;;;;;3.20;0.90;;;;;;;;;;5071538;28;20103;-68
2022/01/06 02:48:16;;;;;;;1.40;0.70;;;;;;;;;;5071634;28;20115;-68
2022/01/06 02:50:45;;;;;;;1.48;0.80;;;;;;;;;;5071765;28;20066;-68
2022/01/06 02:53:11;;;;;;;2.42;0.88;;;;;;;;;;5071748;28;20103;-68
2022/01/06 02:55:42;;;;;;;1.48;0.85;;;;;;;;;;5071822;28;20253;-68
2022/01/06 02:58:08;;;;;;;2.92;0.80;;;;;;;;;;5071327;28;20025;-68
2022/01/06 03:00:35;;;;;;;2.03;0.93;;;;;;;;;;5071519;28;20109;-68
2022/01/06 03:03:01;;;;;;;5.45;1.10;;;;;;;;;;5071598;28;20369;-68
2022/01/06 03:05:26;;;;;;;2.38;1.08;;;;;;;;;;5071391;28;20028;-68
2022/01/06 03:07:52;;;;;;;2.00;0.90;;;;;;;;;;5071375;28;20028;-68
2022/01/06 03:10:18;;;;;;;2.25;1.00;;;;;;;;;;5071447;28;20399;-68
2022/01/06 03:12:45;;;;;;;1.50;0.88;;;;;;;;;;5071193;28;20056;-68
2022/01/06 03:15:15;;;;;;;3.15;0.90;;;;;;;;;;5053460;28;20028;-68
2022/01/06 03:17:42;;;;;;;3.33;1.10;;;;;;;;;;5071103;28;20438;-69
2022/01/06 03:20:11;;;;;;;3.67;1.15;;;;;;;;;;5071158;28;20033;-68
2022/01/06 03:22:37;;;;;;;1.92;1.00;;;;;;;;;;5071113;28;20020;-68
2022/01/06 03:25:05;;;;;;;2.78;1.10;;;;;;;;;;5071355;28;20036;-68
2022/01/06 03:27:31;;;;;;;1.90;0.85;;;;;;;;;;5071363;28;20032;-69
2022/01/06 03:29:57;;;;;;;2.03;1.00;;;;;;;;;;5070603;28;20366;-69
2022/01/06 03:32:22;;;;;;;2.78;1.20;;;;;;;;;;5070946;28;20027;-68
2022/01/06 03:34:47;;;;;;;1.50;0.80;;;;;;;;;;5070874;28;20503;-68
2022/01/06 03:37:14;;;;;;;1.45;0.80;;;;;;;;;;5052718;28;20044;-69
2022/01/06 03:39:42;;;;;;;1.65;0.93;;;;;;;;;;5070625;28;20039;-69
2022/01/06 03:42:08;;;;;;;1.50;0.80;;;;;;;;;;5070667;28;20020;-69
2022/01/06 03:44:34;;;;;;;1.67;0.90;;;;;;;;;;5070836;28;20105;-68
2022/01/06 03:46:59;;;;;;;1.42;0.80;;;;;;;;;;5070524;28;20116;-68
2022/01/06 03:49:25;;;;;;;1.70;0.80;;;;;;;;;;5070335;28;20020;-69
2022/01/06 03:51:50;;;;;;;1.83;0.80;;;;;;;;;;5070704;28;20021;-68
2022/01/06 03:54:16;;;;;;;1.60;0.85;;;;;;;;;;5070649;28;20129;-69
2022/01/06 03:56:41;;;;;;;1.25;0.70;;;;;;;;;;5070519;28;20614;-68
2022/01/06 03:59:07;;;;;;;3.45;0.90;;;;;;;;;;5070254;28;20075;-68
2022/01/06 04:01:33;;;;;;;1.27;0.80;;;;;;;;;;5070469;28;20034;-68
2022/01/06 04:03:59;;;;;;;3.58;0.90;;;;;;;;;;5070505;28;20186;-68
2022/01/06 04:06:24;;;;;;;1.52;0.80;;;;;;;;;;5070462;28;20519;-68
2022/01/06 04:08:50;;;;;;;2.58;0.80;;;;;;;;;;5069803;28;20078;-68
2022/01/06 04:11:15;;;;;;;2.03;0.80;;;;;;;;;;5070318;28;20476;-68
2022/01/06 04:13:41;;;;;;;2.80;0.80;;;;;;;;;;5070032;28;20060;-69
2022/01/06 04:16:09;;;;;;;1.70;0.82;;;;;;;;;;5070409;28;20021;-68
2022/01/06 04:18:36;;;;;;;2.05;0.80;;;;;;;;;;5070048;28;20025;-69
2022/01/06 04:21:02;;;;;;;1.60;0.73;;;;;;;;;;5070140;28;20024;-68
2022/01/06 04:23:28;;;;;;;3.05;0.90;;;;;;;;;;5070257;28;20028;-68
2022/01/06 04:25:53;;;;;;;2.42;0.68;;;;;;;;;;5069976;28;20430;-68
2022/01/06 04:28:19;;;;;;;4.25;0.80;;;;;;;;;;5070105;28;20028;-69
2022/01/06 04:30:44;;;;;;;1.40;0.85;;;;;;;;;;5070173;28;20021;-69
2022/01/06 04:33:10;;;;;;;2.00;0.80;;;;;;;;;;5070037;28;20383;-68
2022/01/06 04:35:35;;;;;;;2.72;0.90;;;;;;;;;;5070091;28;20029;-69
2022/01/06 04:38:01;;;;;;;1.95;0.70;;;;;;;;;;5069755;28;20063;-72
2022/01/06 04:40:26;;;;;;;1.75;0.60;;;;;;;;;;5069879;28;20389;-69
2022/01/06 04:42:52;;;;;;;1.67;0.60;;;;;;;;;;5070129;28;20475;-69
2022/01/06 04:45:17;;;;;;;2.20;0.80;;;;;;;;;;5069862;28;20020;-69
2022/01/06 04:47:43;;;;;;;1.38;0.60;;;;;;;;;;5070149;28;20020;-69
2022/01/06 04:50:09;;;;;;;1.30;0.70;;;;;;;;;;5070052;28;20115;-68
2022/01/06 04:52:34;;;;;;;1.45;0.65;;;;;;;;;;5069896;28;20475;-68
2022/01/06 04:55:00;;;;;;;1.42;0.60;;;;;;;;;;5069848;28;20020;-68
2022/01/06 04:57:25;;;;;;;0.90;0.70;;;;;;;;;;5070043;28;20064;-68
2022/01/06 04:59:51;;;;;;;3.13;0.80;;;;;;;;;;5069704;28;20107;-69
2022/01/06 05:02:16;;;;;;;1.25;0.55;;;;;;;;;;5069785;28;20024;-68
2022/01/06 05:04:42;;;;;;;1.60;0.82;;;;;;;;;;5070021;28;20028;-68
2022/01/06 05:07:07;;;;;;;2.05;0.60;;;;;;;;;;5070058;28;20480;-68
2022/01/06 05:09:33;;;;;;;0.98;0.70;;;;;;;;;;5069437;28;20028;-69
2022/01/06 05:11:58;;;;;;;2.63;0.60;;;;;;;;;;5069751;28;20107;-69
2022/01/06 05:14:24;;;;;;;2.35;0.70;;;;;;;;;;5069470;28;20033;-68
2022/01/06 05:16:49;;;;;;;1.77;0.60;;;;;;;;;;5069584;28;20025;-68
2022/01/06 05:19:15;;;;;;;1.23;0.70;;;;;;;;;;5069411;28;20533;-68
2022/01/06 05:21:41;;;;;;;1.00;0.63;;;;;;;;;;5072440;28;20031;-69
2022/01/06 05:24:12;;;;;;;0.90;0.70;;;;;;;;;;5073366;28;20024;-68
2022/01/06 05:26:38;;;;;;;1.10;0.70;;;;;;;;;;5073179;28;20032;-68
2022/01/06 05:29:07;;;;;;;1.50;0.85;;;;;;;;;;5073005;28;20396;-69
2022/01/06 05:31:32;;;;;;;1.52;0.90;;;;;;;;;;5073311;28;20020;-68
2022/01/06 05:33:58;;;;;;;1.13;0.60;;;;;;;;;;5073307;28;20077;-68
2022/01/06 05:36:23;;;;;;;0.80;0.50;;;;;;;;;;5073120;28;20021;-69
2022/01/06 05:38:48;;;;;;;1.42;0.75;;;;;;;;;;5072723;28;20037;-69
2022/01/06 05:41:14;;;;;;;1.73;0.70;;;;;;;;;;5073088;28;20025;-69
2022/01/06 05:43:39;;;;;;;1.08;0.50;;;;;;;;;;5072923;28;20040;-69
2022/01/06 05:46:05;;;;;;;4.78;0.70;;;;;;;;;;5073261;28;20029;-69
2022/01/06 05:48:30;;;;;;;2.13;0.80;;;;;;;;;;5073052;28;20020;-68
2022/01/06 05:50:56;;;;;;;2.50;0.65;;;;;;;;;;5072754;28;20017;-69
2022/01/06 05:53:21;;;;;;;1.58;0.85;;;;;;;;;;5072876;28;20103;-68
2022/01/06 05:55:47;;;;;;;1.20;0.75;;;;;;;;;;5073017;28;20032;-68
2022/01/06 05:58:13;;;;;;;2.53;0.70;;;;;;;;;;5072709;28;20032;-68
2022/01/06 06:00:38;;;;;;;1.63;0.70;;;;;;;;;;5072512;28;20095;-68
2022/01/06 06:03:04;;;;;;;1.67;0.90;;;;;;;;;;5054553;28;20112;-68
2022/01/06 06:05:29;;;;;;;3.33;0.80;;;;;;;;;;5072694;28;20035;-69
2022/01/06 06:07:55;;;;;;;1.85;0.70;;;;;;;;;;5072489;28;20032;-68
2022/01/06 06:10:20;;;;;;;0.95;0.60;;;;;;;;;;5072576;28;20424;-68
2022/01/06 06:12:48;;;;;;;1.70;0.70;;;;;;;;;;5072550;28;20494;-69
2022/01/06 06:15:14;;;;;;;1.88;0.90;;;;;;;;;;5072196;28;20042;-69
2022/01/06 06:17:39;;;;;;;6.75;0.80;;;;;;;;;;5072451;28;20024;-69
2022/01/06 06:20:05;;;;;;;3.05;0.90;;;;;;;;;;5072098;28;20025;-69
2022/01/06 06:22:31;;;;;;;4.85;0.90;;;;;;;;;;5072713;28;20457;-69
2022/01/06 06:24:56;;;;;;;2.40;0.88;;;;;;;;;;5072226;28;20416;-69
2022/01/06 06:27:21;;;;;;;3.45;0.80;;;;;;;;;;5072009;28;20029;-68
2022/01/06 06:29:47;;;;;;;2.53;0.90;;;;;;;;;;5072073;28;20029;-69
2022/01/06 06:32:12;;;;;;;1.88;0.85;;;;;;;;;;5071889;28;20432;-69
2022/01/06 06:34:38;;;;;;;1.90;0.70;;;;;;;;;;5072029;28;20396;-68
2022/01/06 06:37:03;;;;;;;1.92;1.02;;;;;;;;;;5071874;28;20071;-68
2022/01/06 06:39:28;;;;;;;1.75;0.90;;;;;;;;;;5071907;28;20048;-69
2022/01/06 06:41:54;;;;;;;1.65;0.93;;;;;;;;;;5072005;28;20028;-69
2022/01/06 06:44:20;;;;;;;2.30;1.15;;;;;;;;;;5071812;28;20025;-68
2022/01/06 06:46:45;;;;;;;4.93;1.17;;;;;;;;;;5071680;28;20040;-69
2022/01/06 06:49:11;;;;;;;2.00;1.02;;;;;;;;;;5071671;28;20490;-69
2022/01/06 06:51:36;;;;;;;1.73;1.10;;;;;;;;;;5071831;28;20077;-68
2022/01/06 06:54:01;;;;;;;2.95;1.10;;;;;;;;;;5071654;28;20036;-68
2022/01/06 06:56:27;;;;;;;3.28;1.20;;;;;;;;;;5071735;28;20031;-69
2022/01/06 06:58:52;;;;;;;1.95;1.00;;;;;;;;;;5071485;28;20062;-69
2022/01/06 07:01:18;;;;;;;3.47;1.10;;;;;;;;;;5071202;28;20024;-69
2022/01/06 07:03:43;;;;;;;3.80;1.25;;;;;;;;;;5071992;28;20027;-69
2022/01/06 07:06:09;;;;;;;2.53;1.00;;;;;;;;;;5071406;28;20028;-69
2022/01/06 07:08:34;;;;;;;3.67;1.23;;;;;;;;;;5071529;28;20439;-68
2022/01/06 07:11:00;;;;;;;1.90;1.17;;;;;;;;;;5071174;28;20476;-69
2022/01/06 07:13:25;;;;;;;2.20;1.00;;;;;;;;;;5071170;28;20031;-69
2022/01/06 07:15:51;;;;;;;2.22;1.20;;;;;;;;;;5071551;28;20024;-69
2022/01/06 07:18:16;;;;;;;2.50;1.20;;;;;;;;;;5071279;28;20024;-69
2022/01/06 07:20:42;;;;;;;2.67;1.15;;;;;;;;;;5070962;28;20480;-69
2022/01/06 07:23:08;;;;;;;1.83;0.90;;;;;;;;;;5071106;28;20028;-69
2022/01/06 07:25:33;;;;;;;3.00;1.10;;;;;;;;;;5070798;28;20040;-69
2022/01/06 07:27:59;;;;;;;3.35;1.25;;;;;;;;;;5071075;28;20472;-69
2022/01/06 07:30:24;;;;;;;4.47;1.10;;;;;;;;;;5070789;28;20158;-69
2022/01/06 07:32:51;;;;;;;1.88;1.10;;;;;;;;;;5071287;28;20078;-69
2022/01/06 07:35:21;;;;;;;1.83;1.10;;;;;;;;;;5070977;28;20103;-69
2022/01/06 07:37:47;;;;;;;2.20;1.20;;;;;;;;;;5071125;28;20056;-69
2022/01/06 07:40:14;;;;;;;5.20;1.50;;;;;;;;;;5070797;28;20042;-69
2022/01/06 07:42:39;;;;;;;2.88;1.40;;;;;;;;;;5070227;28;20102;-68
2022/01/06 07:45:05;;;;;;;4.88;1.40;;;;;;;;;;5070258;28;20060;-69
2022/01/06 07:47:36;;;;;;;2.20;1.25;;;;;;;;;;5070414;28;20033;-68
2022/01/06 07:50:04;;;;;;;2.75;1.30;;;;;;;;;;5052465;28;20077;-69
2022/01/06 07:52:29;;;;;;;4.63;1.80;;;;;;;;;;5070402;28;20409;-69
2022/01/06 07:54:54;;;;;;;3.05;1.38;;;;;;;;;;5070607;28;20456;-68
2022/01/06 07:57:20;;;;;;;2.40;1.30;;;;;;;;;;5070492;28;20460;-69
2022/01/06 07:59:46;;;;;;;4.18;1.33;;;;;;;;;;5070071;28;20425;-69
2022/01/06 08:02:11;;;;;;;2.67;1.20;;;;;;;;;;5070288;28;20028;-68
2022/01/06 08:04:37;;;;;;;4.63;1.33;;;;;;;;;;5070290;28;20062;-69
2022/01/06 08:07:02;;;;;;;4.05;1.20;;;;;;;;;;5070299;28;20066;-68
2022/01/06 08:09:28;;;;;;;2.72;1.20;;;;;;;;;;5070129;28;20025;-69
2022/01/06 08:11:54;;;;;;;5.45;1.45;;;;;;;;;;5070230;28;20040;-68
2022/01/06 08:14:19;;;;;;;4.25;1.60;;;;;;;;;;5070093;28;20024;-69
2022/01/06 08:16:44;;;;;;;4.22;1.45;;;;;;;;;;5070169;28;20043;-69
2022/01/06 08:19:10;;;;;;;3.53;1.48;;;;;;;;;;5070285;28;20431;-68
2022/01/06 08:21:36;;;;;;;3.35;1.23;;;;;;;;;;5069839;28;20391;-69
2022/01/06 08:24:01;;;;;;;3.45;1.40;;;;;;;;;;5070173;28;20036;-69
2022/01/06 08:26:27;;;;;;;3.13;1.35;;;;;;;;;;5069906;28;20037;-69
2022/01/06 08:28:52;;;;;;;4.55;1.50;;;;;;;;;;5069986;28;20029;-68
2022/01/06 08:31:18;;;;;;;2.40;1.40;;;;;;;;;;5070039;28;20109;-69
2022/01/06 08:33:45;;;;;;;3.75;1.45;;;;;;;;;;5070536;28;20032;-69
2022/01/06 08:36:10;;;;;;;2.55;1.30;;;;;;;;;;5070030;28;20209;-68
2022/01/06 08:38:36;;;;;;;2.78;1.40;;;;;;;;;;5069922;28;20516;-69
2022/01/06 08:41:01;;;;;;;5.57;1.63;;;;;;;;;;5069888;28;20430;-68
2022/01/06 08:43:27;;;;;;;4.75;1.60;;;;;;;;;;5069796;28;20062;-68
2022/01/06 08:45:57;;;;;;;6.57;1.80;;;;;;;;;;5069987;28;20025;-69
2022/01/06 08:48:24;;;;;;;7.20;1.93;;;;;;;;;;5069569;28;20029;-69
2022/01/06 08:50:49;;;;;;;6.18;1.77;;;;;;;;;;5069650;28;20085;-69
2022/01/06 08:53:15;;;;;;;5.80;2.05;;;;;;;;;;5069879;28;20032;-68
2022/01/06 08:55:41;;;;;;;7.03;1.70;;;;;;;;;;5073172;28;20025;-69
2022/01/06 08:58:06;;;;;;;6.65;1.67;;;;;;;;;;5073890;28;20027;-69
2022/01/06 09:00:32;;;;;;;3.97;1.98;;;;;;;;;;5073641;28;20028;-69
2022/01/06 09:02:58;;;;;;;6.05;2.00;;;;;;;;;;5073776;28;20066;-68
2022/01/06 09:05:24;;;;;;;6.30;1.95;;;;;;;;;;5073665;28;20453;-69
2022/01/06 09:07:49;;;;;;;7.80;2.00;;;;;;;;;;5073681;28;20031;-68
2022/01/06 09:10:15;;;;;;;6.63;2.05;;;;;;;;;;5073678;28;20025;-68
2022/01/06 09:12:41;;;;;;;9.43;2.20;;;;;;;;;;5073786;28;20028;-69
2022/01/06 09:15:08;;;;;;;4.40;2.08;;;;;;;;;;5073476;28;20415;-69
2022/01/06 09:17:36;;;;;;;12.02;3.33;;;;;;;;;;5073538;28;20103;-69
2022/01/06 09:20:06;;;;;;;10.02;3.70;;;;;;;;;;5073308;28;20051;-69
2022/01/06 09:22:31;;;;;;;7.25;2.72;;;;;;;;;;5073497;28;20099;-69
2022/01/06 09:24:57;;;;;;;6.32;2.40;;;;;;;;;;5073585;28;20128;-70
2022/01/06 09:27:23;;;;;;;6.03;2.00;;;;;;;;;;5073669;28;20278;-69
2022/01/06 09:29:53;;;;;;;3.63;1.83;;;;;;;;;;5073324;28;20024;-69
2022/01/06 09:32:19;;;;;;;3.67;1.35;;;;;;;;;;5073217;28;20115;-69
2022/01/06 09:34:45;;;;;;;2.85;1.55;;;;;;;;;;5073221;28;20517;-70
2022/01/06 09:37:10;;;;;;;5.40;1.58;;;;;;;;;;5073003;28;20044;-71
2022/01/06 09:39:36;;;;;;;3.92;1.60;;;;;;;;;;5073309;28;20384;-69
2022/01/06 09:42:01;;;;;;;2.58;1.30;;;;;;;;;;5072894;28;20385;-69
2022/01/06 09:44:27;;;;;;;5.80;1.80;;;;;;;;;;5072870;28;20081;-69
2022/01/06 09:46:55;;;;;;;3.53;1.63;;;;;;;;;;5072986;28;20040;-69
2022/01/06 09:49:21;;;;;;;7.70;2.30;;;;;;;;;;5072760;28;20025;-69
2022/01/06 09:51:47;;;;;;;4.28;1.92;;;;;;;;;;5072690;28;20039;-68
2022/01/06 09:54:12;;;;;;;3.53;1.80;;;;;;;;;;5072852;28;20024;-68
2022/01/06 09:56:38;;;;;;;3.65;2.03;;;;;;;;;;5072772;28;20035;-68
2022/01/06 09:59:03;;;;;;;3.03;1.85;;;;;;;;;;5054709;28;20029;-69
2022/01/06 10:01:29;;;;;;;11.00;2.30;;;;;;;;;;5072521;28;20373;-69
2022/01/06 10:03:54;;;;;;;7.25;2.30;;;;;;;;;;5072533;28;20078;-68
2022/01/06 10:06:22;;;;;;;8.82;3.25;;;;;;;;;;5071772;28;20032;-69
2022/01/06 10:08:59;;;;;;;8.45;3.83;;;;;;;;;;5072673;28;20025;-68
2022/01/06 10:11:27;;;;;;;15.07;4.32;;;;;;;;;;5072325;28;20442;-68
2022/01/06 10:14:04;;;;;;;10.82;4.20;;;;;;;;;;5072393;28;20467;-68
2022/01/06 10:16:30;;;;;;;8.95;4.05;;;;;;;;;;5072382;28;20024;-68
2022/01/06 10:19:09;;;;;;;8.30;4.00;;;;;;;;;;5072515;28;20032;-68
2022/01/06 10:21:57;;;;;;;7.60;3.30;;;;;;;;;;5072285;28;20059;-68
2022/01/06 10:24:27;;;;;;;8.88;3.22;;;;;;;;;;5072329;28;20365;-69
2022/01/06 10:27:07;;;;;;;11.05;3.33;;;;;;;;;;5072299;28;20089;-72
2022/01/06 10:29:45;;;;;;;6.82;3.05;;;;;;;;;;5072184;28;20298;-69
2022/01/06 10:32:16;;;;;;;6.35;2.80;;;;;;;;;;5072060;28;20024;-68
2022/01/06 10:34:45;;;;;;;5.90;2.90;;;;;;;;;;5072072;28;20237;-69
2022/01/06 10:37:17;;;;;;;5.45;2.60;;;;;;;;;;5071948;28;20041;-69
2022/01/06 10:39:45;;;;;;;7.30;2.90;;;;;;;;;;5072200;28;20151;-69
2022/01/06 10:42:11;;;;;;;7.55;3.03;;;;;;;;;;5071801;28;20021;-69
2022/01/06 10:44:47;;;;;;;6.85;2.58;;;;;;;;;;5072155;28;20025;-69
2022/01/06 10:47:12;;;;;;;5.60;2.95;;;;;;;;;;5071802;28;20484;-69
2022/01/06 10:49:37;;;;;;;10.25;4.15;;;;;;;;;;5071554;28;20036;-69
2022/01/06 10:52:03;;;;;;;8.05;4.03;;;;;;;;;;5071770;28;20035;-69
2022/01/06 10:54:29;;;;;;;9.20;4.50;;;;;;;;;;5071714;28;20035;-68
2022/01/06 10:57:03;;;;;;;9.48;3.72;;;;;;;;;;5071717;28;20125;-69
2022/01/06 10:59:33;;;;;;;9.73;3.15;;;;;;;;;;5071988;28;20532;-68
2022/01/06 11:01:59;;;;;;;8.13;3.10;;;;;;;;;;5053393;28;20130;-70
2022/01/06 11:04:25;;;;;;;6.45;2.83;;;;;;;;;;5071589;28;20495;-69
2022/01/06 11:06:51;;;;;;;5.07;2.88;;;;;;;;;;5071594;28;20111;-68
2022/01/06 11:09:17;;;;;;;7.00;2.90;;;;;;;;;;5071504;28;20162;-72
2022/01/06 11:14:24;;;;;;;5.95;3.10;;;;;;;;;;5071283;28;20096;-69
2022/01/06 11:16:49;;;;;;;12.10;3.70;;;;;;;;;;5071397;28;20112;-68
2022/01/06 11:19:15;;;;;;;6.82;3.10;;;;;;;;;;5070243;28;20028;-68
2022/01/06 11:21:49;;;;;;;11.60;4.28;;;;;;;;;;5071029;28;20077;-69
2022/01/06 11:24:24;;;;;;;12.32;3.50;;;;;;;;;;5071571;28;20113;-69
2022/01/06 11:27:02;;;;;;;8.60;3.20;;;;;;;;;;5070908;28;20090;-68
2022/01/06 11:29:32;;;;;;;9.13;3.50;;;;;;;;;;5070920;28;20017;-68
2022/01/06 11:31:58;;;;;;;10.18;3.15;;;;;;;;;;5070773;28;20479;-69
2022/01/06 11:34:26;;;;;;;5.65;2.78;;;;;;;;;;5070934;28;20259;-68
2022/01/06 11:36:55;;;;;;;7.55;3.33;;;;;;;;;;5070666;28;20039;-68
2022/01/06 11:39:29;;;;;;;6.55;2.58;;;;;;;;;;5070823;28;20025;-68
2022/01/06 11:41:57;;;;;;;6.68;2.83;;;;;;;;;;5070572;28;20111;-68
2022/01/06 11:44:25;;;;;;;7.55;3.08;;;;;;;;;;5070600;28;20077;-68
2022/01/06 11:46:57;;;;;;;7.30;3.00;;;;;;;;;;5070604;28;20191;-69
2022/01/06 11:49:39;;;;;;;6.05;2.28;;;;;;;;;;5070555;28;20024;-70
2022/01/06 11:52:14;;;;;;;4.50;2.20;;;;;;;;;;5070269;28;20081;-71
2022/01/06 11:54:51;;;;;;;4.88;2.45;;;;;;;;;;5070586;28;20060;-69
2022/01/06 11:57:39;;;;;;;6.78;2.60;;;;;;;;;;5070565;28;20028;-69
2022/01/06 12:00:25;;;;;;;5.70;2.33;;;;;;;;;;5070343;28;20029;-68
2022/01/06 12:03:00;;;;;;;6.78;2.40;;;;;;;;;;5070128;28;20029;-72
2022/01/06 12:05:26;;;;;;;6.25;2.42;;;;;;;;;;5070667;28;20024;-69
2022/01/06 12:07:53;;;;;;;10.98;2.50;;;;;;;;;;5070379;28;20028;-69
2022/01/06 12:10:20;;;;;;;4.40;2.00;;;;;;;;;;5070321;28;20048;-69
2022/01/06 12:12:48;;;;;;;5.00;1.80;;;;;;;;;;5070198;28;20078;-69
2022/01/06 12:15:17;;;;;;;4.32;2.00;;;;;;;;;;5070175;28;20032;-69
2022/01/06 12:17:53;;;;;;;5.88;2.60;;;;;;;;;;5070221;28;20056;-69
2022/01/06 12:20:28;;;;;;;13.93;6.35;;;;;;;;;;5070369;28;20017;-68
2022/01/06 12:22:54;;;;;;;10.10;4.55;;;;;;;;;;5069954;28;20107;-69
2022/01/06 12:25:24;;;;;;;7.47;3.30;;;;;;;;;;5070174;28;20112;-69
2022/01/06 12:27:55;;;;;;;8.38;2.83;;;;;;;;;;5070252;28;20044;-69
2022/01/06 12:30:23;;;;;;;5.97;2.47;;;;;;;;;;5069780;28;20111;-68
2022/01/06 12:33:03;;;;;;;6.53;2.53;;;;;;;;;;5069893;28;20028;-69
2022/01/06 12:35:39;;;;;;;6.82;3.13;;;;;;;;;;5070093;28;20024;-69
2022/01/06 12:38:05;;;;;;;4.15;1.90;;;;;;;;;;5069882;28;20044;-69
2022/01/06 12:40:48;;;;;;;4.43;2.22;;;;;;;;;;5069996;28;20491;-68
2022/01/06 12:43:23;;;;;;;4.80;2.20;;;;;;;;;;5069852;28;20117;-69
2022/01/06 12:46:08;;;;;;;3.40;2.10;;;;;;;;;;5069862;28;20173;-69
2022/01/06 12:48:45;;;;;;;4.97;1.80;;;;;;;;;;5069934;28;20035;-69
2022/01/06 12:51:19;;;;;;;3.53;1.50;;;;;;;;;;5069612;28;20027;-69
2022/01/06 12:53:47;;;;;;;3.40;1.73;;;;;;;;;;5069833;28;20074;-69
2022/01/06 12:56:33;;;;;;;3.22;1.70;;;;;;;;;;5069849;28;20473;-69
2022/01/06 12:59:01;;;;;;;3.67;1.40;;;;;;;;;;5069762;28;20047;-68
2022/01/06 13:01:28;;;;;;;2.92;1.35;;;;;;;;;;5069661;28;20012;-69
2022/01/06 13:03:54;;;;;;;4.40;1.40;;;;;;;;;;5069756;28;20021;-69
2022/01/06 13:06:22;;;;;;;3.30;1.40;;;;;;;;;;5069704;28;20035;-68
2022/01/06 13:08:50;;;;;;;7.15;1.92;;;;;;;;;;5069693;28;20576;-69
2022/01/06 13:11:18;;;;;;;5.43;1.90;;;;;;;;;;5069928;28;20029;-69
2022/01/06 13:13:50;;;;;;;4.80;2.15;;;;;;;;;;5069393;28;20028;-68
2022/01/06 13:16:27;;;;;;;5.43;2.30;;;;;;;;;;5069555;28;20033;-69
2022/01/06 13:18:56;;;;;;;6.25;2.90;;;;;;;;;;5069668;28;20027;-69
2022/01/06 13:21:30;;;;;;;4.95;2.90;;;;;;;;;;5069656;28;20036;-73
2022/01/06 13:23:57;;;;;;;7.32;3.10;;;;;;;;;;5069502;28;20020;-69
2022/01/06 13:26:23;;;;;;;6.03;2.70;;;;;;;;;;5069380;28;20074;-69
2022/01/06 13:28:57;;;;;;;5.82;2.95;;;;;;;;;;5069251;28;20520;-69
2022/01/06 13:31:23;;;;;;;7.47;2.88;;;;;;;;;;5069517;28;20035;-69
2022/01/06 13:33:57;;;;;;;6.03;2.60;;;;;;;;;;5051366;28;20065;-69
2022/01/06 13:36:40;;;;;;;5.70;2.42;;;;;;;;;;5069538;28;20107;-68
2022/01/06 13:39:11;;;;;;;5.00;2.05;;;;;;;;;;5069170;28;20040;-69
2022/01/06 13:41:41;;;;;;;6.93;2.33;;;;;;;;;;5070422;28;20028;-73
2022/01/06 13:44:09;;;;;;;6.43;2.20;;;;;;;;;;5072856;28;20511;-69
2022/01/06 13:46:50;;;;;;;5.38;2.33;;;;;;;;;;5073042;28;20037;-69
2022/01/06 13:52:14;;;;;;;7.32;2.30;;;;;;;;;;5072929;28;20503;-69
2022/01/06 13:54:39;;;;;;;5.60;2.70;;;;;;;;;;5072853;28;20032;-69
2022/01/06 13:57:10;;;;;;;5.32;2.40;;;;;;;;;;5073085;28;20452;-69
2022/01/06 13:59:35;;;;;;;6.28;2.45;;;;;;;;;;5072680;28;20028;-69
2022/01/06 14:02:01;;;;;;;5.55;2.72;;;;;;;;;;5072542;28;20453;-69
2022/01/06 14:04:27;;;;;;;5.95;2.45;;;;;;;;;;5072756;28;20021;-69
2022/01/06 14:06:52;;;;;;;7.20;2.17;;;;;;;;;;5072671;28;20024;-69
2022/01/06 14:09:19;;;;;;;4.63;2.17;;;;;;;;;;5072603;28;20032;-69
2022/01/06 14:11:44;;;;;;;4.07;1.80;;;;;;;;;;5072631;28;20482;-71
2022/01/06 14:14:12;;;;;;;4.82;1.98;;;;;;;;;;5072257;28;20100;-68
2022/01/06 14:16:37;;;;;;;4.50;1.90;;;;;;;;;;5072541;28;20027;-69
2022/01/06 14:19:03;;;;;;;3.50;1.63;;;;;;;;;;5072356;28;20028;-69
2022/01/06 14:21:28;;;;;;;4.95;1.85;;;;;;;;;;5072328;28;20179;-69
2022/01/06 14:23:53;;;;;;;4.18;1.88;;;;;;;;;;5072024;28;20025;-69
2022/01/06 14:26:19;;;;;;;5.65;2.00;;;;;;;;;;5072415;28;20032;-69
2022/01/06 14:28:44;;;;;;;3.08;1.60;;;;;;;;;;5072259;28;20194;-69
2022/01/06 14:31:10;;;;;;;3.55;1.60;;;;;;;;;;5072209;28;20422;-70
2022/01/06 14:33:38;;;;;;;3.10;1.50;;;;;;;;;;5072029;28;20028;-69
2022/01/06 14:36:05;;;;;;;4.13;1.83;;;;;;;;;;5072144;28;20460;-68
2022/01/06 14:38:31;;;;;;;3.83;1.38;;;;;;;;;;5071996;28;20044;-69
2022/01/06 14:40:56;;;;;;;3.10;1.50;;;;;;;;;;5072043;28;20027;-68
2022/01/06 14:43:22;;;;;;;5.10;1.65;;;;;;;;;;5071579;28;20100;-68
2022/01/06 14:45:48;;;;;;;2.95;1.70;;;;;;;;;;5071936;28;20107;-69
2022/01/06 14:48:15;;;;;;;4.95;1.67;;;;;;;;;;5072282;28;20028;-69
2022/01/06 14:50:40;;;;;;;2.85;1.40;;;;;;;;;;5071525;28;20101;-69
2022/01/06 14:53:06;;;;;;;4.28;1.40;;;;;;;;;;5071330;28;20450;-69
2022/01/06 14:55:31;;;;;;;3.15;1.65;;;;;;;;;;5071832;28;20031;-68
2022/01/06 14:57:57;;;;;;;3.80;1.60;;;;;;;;;;5071769;28;20028;-69